Terminal Aerodrome Forecast
Issued by NWS Jacksonville, FL

Home | Current Version | Previous Version | Text Only | Print | Product List | Glossary On
Versions: 1 2 3 4 5 6 7 8 9 10 11 12 13 14 15 16 17 18 19 20 21 22 23 24
000
FTUS42 KJAX 060553 AAA
TAFJAX
TAF AMD
KJAX 060553Z 0606/0706 33008KT 2SM -DZ BR BKN004 OVC008
     FM061100 01011KT 5SM BR OVC007
     FM061400 02010KT 5SM -SHRA BR OVC007
     FM062200 02011KT 6SM BR OVC015
     FM070200 01005KT P6SM SCT020 BKN250=

USA.gov is the U.S. government's official web portal to all federal, state and local government web resources and services.